createdAt,value
2023-03-14T00:00:52.184Z,54.86
2023-03-14T00:03:18.956Z,55.46
2023-03-14T00:05:45.560Z,56.23
2023-03-14T00:08:14.529Z,55.94
2023-03-14T00:10:41.448Z,56.09
2023-03-14T00:13:08.298Z,55.50
2023-03-14T00:15:35.705Z,55.91
2023-03-14T00:18:02.855Z,55.17
2023-03-14T00:20:29.456Z,55.92
2023-03-14T00:22:56.012Z,55.56
2023-03-14T00:25:22.551Z,55.63
2023-03-14T00:27:51.807Z,55.18
2023-03-14T00:30:18.478Z,55.11
2023-03-14T00:32:45.181Z,55.36
2023-03-14T00:35:11.875Z,55.29
2023-03-14T00:37:38.506Z,55.15
2023-03-14T00:40:07.633Z,55.06
2023-03-14T00:42:34.494Z,54.64
2023-03-14T00:45:01.146Z,54.60
2023-03-14T00:47:27.726Z,54.40
2023-03-14T00:49:54.297Z,54.42
2023-03-14T00:52:21.427Z,54.21
2023-03-14T00:54:47.993Z,54.11
2023-03-14T00:57:14.548Z,53.99
2023-03-14T00:59:41.164Z,54.00
2023-03-14T01:02:07.798Z,53.80
2023-03-14T01:04:35.756Z,53.97
2023-03-14T01:07:02.338Z,54.04
2023-03-14T01:09:28.966Z,54.18
2023-03-14T01:11:55.505Z,54.34
2023-03-14T01:14:22.056Z,54.25
2023-03-14T01:16:48.632Z,53.90
2023-03-14T01:19:15.634Z,53.93
2023-03-14T01:21:42.345Z,53.61
2023-03-14T01:24:11.805Z,53.73
2023-03-14T01:26:38.369Z,54.08
2023-03-14T01:29:05.329Z,54.18
2023-03-14T01:31:31.941Z,54.15
2023-03-14T01:33:58.712Z,54.18
2023-03-14T01:36:25.296Z,54.80
2023-03-14T01:38:51.914Z,54.77
2023-03-14T01:41:27.666Z,54.71
2023-03-14T01:43:54.921Z,54.81
2023-03-14T01:46:35.345Z,54.73
2023-03-14T01:49:16.108Z,54.38
2023-03-14T01:52:11.557Z,54.77
2023-03-14T01:54:40.049Z,54.84
2023-03-14T01:57:06.706Z,55.23
2023-03-14T01:59:33.846Z,55.17
2023-03-14T02:02:01.517Z,55.36
2023-03-14T02:04:31.265Z,55.57
2023-03-14T02:07:05.109Z,55.57
2023-03-14T02:09:31.723Z,55.25
2023-03-14T02:11:59.377Z,55.38
2023-03-14T02:14:35.168Z,55.22
2023-03-14T02:17:03.964Z,55.20
2023-03-14T02:19:58.750Z,55.43
2023-03-14T02:22:25.613Z,55.42
2023-03-14T02:25:04.040Z,55.56
2023-03-14T02:27:30.779Z,55.67
2023-03-14T02:30:04.143Z,55.66
2023-03-14T02:32:33.806Z,55.81
2023-03-14T02:35:04.964Z,55.58
2023-03-14T02:37:38.035Z,55.82
2023-03-14T02:40:05.909Z,55.97
2023-03-14T02:42:32.520Z,55.83
2023-03-14T02:45:01.783Z,56.15
2023-03-14T02:47:31.428Z,56.16
2023-03-14T02:50:04.280Z,56.68
2023-03-14T02:52:31.163Z,56.76
2023-03-14T02:54:57.845Z,56.93
2023-03-14T02:57:24.480Z,57.38
2023-03-14T02:59:51.091Z,57.57
2023-03-14T03:02:17.691Z,57.84
2023-03-14T03:04:44.229Z,57.78
2023-03-14T03:07:10.843Z,57.62
2023-03-14T03:09:37.453Z,57.53
2023-03-14T03:12:04.238Z,57.44
2023-03-14T03:14:30.800Z,57.21
2023-03-14T03:16:57.387Z,57.30
2023-03-14T03:19:24.064Z,57.46
2023-03-14T03:21:50.668Z,58.04
2023-03-14T03:24:17.242Z,57.41
2023-03-14T03:26:44.103Z,57.60
2023-03-14T03:29:10.644Z,57.49
2023-03-14T03:31:39.031Z,58.04
2023-03-14T03:34:05.793Z,58.89
2023-03-14T03:36:32.493Z,59.39
2023-03-14T03:38:59.061Z,58.80
2023-03-14T03:41:25.738Z,59.07
2023-03-14T03:43:52.479Z,58.97
2023-03-14T03:46:19.143Z,59.92
2023-03-14T03:48:45.730Z,59.98
2023-03-14T03:51:14.719Z,60.00
2023-03-14T03:53:42.026Z,60.37
2023-03-14T03:56:09.480Z,60.25
2023-03-14T03:58:36.822Z,60.61
2023-03-14T04:01:03.423Z,61.50
2023-03-14T04:03:30.113Z,61.34
2023-03-14T04:06:01.570Z,61.90
2023-03-14T04:08:28.202Z,61.34
2023-03-14T04:11:02.114Z,61.20
2023-03-14T04:13:29.369Z,61.78
2023-03-14T04:15:56.722Z,61.91
2023-03-14T04:18:27.205Z,61.65
2023-03-14T04:20:55.440Z,63.89
2023-03-14T04:23:26.828Z,62.94
2023-03-14T04:25:54.209Z,62.31
2023-03-14T04:28:20.949Z,62.73
2023-03-14T04:30:47.499Z,62.32
2023-03-14T04:33:18.248Z,64.05
2023-03-14T04:35:46.204Z,64.28
2023-03-14T04:38:13.709Z,64.50
2023-03-14T04:40:41.865Z,64.99
2023-03-14T04:43:10.715Z,65.32
2023-03-14T04:45:37.740Z,65.83
2023-03-14T04:48:04.510Z,64.82
2023-03-14T04:50:31.182Z,65.55
2023-03-14T04:52:57.717Z,65.43
2023-03-14T04:55:24.584Z,65.56
2023-03-14T04:57:51.196Z,65.43
2023-03-14T05:00:19.518Z,65.99
2023-03-14T05:02:46.079Z,65.57
2023-03-14T05:05:12.841Z,65.29
2023-03-14T05:07:39.393Z,64.81
2023-03-14T05:10:06.389Z,64.23
2023-03-14T05:12:32.936Z,63.75
2023-03-14T05:14:59.478Z,63.47
2023-03-14T05:17:26.050Z,62.74
2023-03-14T05:19:52.681Z,61.88
2023-03-14T05:22:19.270Z,61.40
2023-03-14T05:24:45.882Z,60.98
2023-03-14T05:27:12.458Z,60.75
2023-03-14T05:29:39.025Z,60.02
2023-03-14T05:32:05.779Z,59.65
2023-03-14T05:34:32.602Z,59.02
2023-03-14T05:36:59.410Z,58.84
2023-03-14T05:39:26.060Z,58.63
2023-03-14T05:41:54.909Z,58.44
2023-03-14T05:44:21.584Z,58.38
2023-03-14T05:46:48.404Z,58.06
2023-03-14T05:49:14.944Z,58.06
2023-03-14T05:51:43.874Z,57.60
2023-03-14T05:54:10.454Z,57.36
2023-03-14T05:56:37.032Z,57.16
2023-03-14T05:59:04.330Z,56.98
2023-03-14T06:01:31.054Z,56.90
2023-03-14T06:03:57.600Z,56.19
2023-03-14T06:06:24.236Z,55.57
2023-03-14T06:08:51.057Z,55.67
2023-03-14T06:11:17.662Z,55.66
2023-03-14T06:13:45.907Z,55.61
2023-03-14T06:16:12.595Z,54.09
2023-03-14T06:18:39.429Z,53.95
2023-03-14T06:21:06.438Z,54.12
2023-03-14T06:23:33.027Z,53.38
2023-03-14T06:26:00.191Z,52.87
2023-03-14T06:28:26.818Z,52.76
2023-03-14T06:30:53.422Z,52.02
2023-03-14T06:33:20.101Z,51.82
2023-03-14T06:35:46.669Z,52.17
2023-03-14T06:38:13.298Z,51.84
2023-03-14T06:40:39.887Z,51.11
2023-03-14T06:43:06.429Z,50.75
2023-03-14T06:45:33.202Z,50.98
2023-03-14T06:47:59.784Z,50.73
2023-03-14T06:50:26.346Z,51.02
2023-03-14T06:52:52.996Z,50.78
2023-03-14T06:55:21.318Z,51.30
2023-03-14T06:57:49.120Z,51.19
2023-03-14T07:00:16.092Z,50.27
2023-03-14T07:02:43.546Z,50.72
2023-03-14T07:05:11.495Z,50.80
2023-03-14T07:07:38.097Z,50.68
2023-03-14T07:10:05.134Z,50.56
2023-03-14T07:12:31.685Z,50.59
2023-03-14T07:15:03.288Z,51.12
2023-03-14T07:17:38.673Z,51.29
2023-03-14T07:20:08.216Z,50.92
2023-03-14T07:22:35.244Z,50.89
2023-03-14T07:25:01.893Z,50.63
2023-03-14T07:27:28.463Z,50.00
2023-03-14T07:29:55.049Z,50.09
2023-03-14T07:32:21.646Z,49.64
2023-03-14T07:34:49.939Z,49.84
2023-03-14T07:37:16.536Z,49.93
2023-03-14T07:39:43.084Z,50.31
2023-03-14T07:42:09.732Z,49.43
2023-03-14T07:44:36.552Z,49.26
2023-03-14T07:47:03.176Z,49.64
2023-03-14T07:49:29.773Z,49.54
2023-03-14T07:51:56.383Z,49.11
2023-03-14T07:54:23.769Z,48.79
2023-03-14T07:56:50.348Z,48.53
2023-03-14T07:59:16.941Z,48.92
2023-03-14T08:01:43.481Z,49.43
2023-03-14T08:04:10.561Z,49.75
2023-03-14T08:06:38.041Z,47.64
2023-03-14T08:09:05.453Z,47.60
2023-03-14T08:11:32.019Z,47.56
2023-03-14T08:13:58.841Z,47.70
2023-03-14T08:16:25.408Z,46.93
2023-03-14T08:18:52.017Z,46.51
2023-03-14T08:21:18.687Z,46.79
2023-03-14T08:23:45.315Z,46.20
2023-03-14T08:26:11.893Z,46.33
2023-03-14T08:28:38.497Z,45.88
2023-03-14T08:31:05.336Z,45.22
2023-03-14T08:33:32.014Z,45.49
2023-03-14T08:36:01.550Z,45.07
2023-03-14T08:38:28.730Z,44.32
2023-03-14T08:40:59.784Z,44.77
2023-03-14T08:43:27.813Z,45.64
2023-03-14T08:45:54.827Z,43.56
2023-03-14T08:48:21.365Z,43.59
2023-03-14T08:50:48.104Z,42.48
2023-03-14T08:53:14.964Z,42.58
2023-03-14T08:55:41.601Z,42.41
2023-03-14T08:58:08.201Z,42.12
2023-03-14T09:00:34.749Z,41.17
2023-03-14T09:03:01.350Z,42.25
2023-03-14T09:05:27.957Z,40.16
2023-03-14T09:07:54.601Z,40.37
2023-03-14T09:10:21.179Z,40.53
2023-03-14T09:12:47.732Z,40.69
2023-03-14T09:15:14.313Z,41.20
2023-03-14T09:17:43.152Z,41.38
2023-03-14T09:20:10.446Z,40.29
2023-03-14T09:22:37.286Z,39.58
2023-03-14T09:25:05.545Z,38.97
2023-03-14T09:27:32.172Z,39.67
2023-03-14T09:29:58.767Z,39.10
2023-03-14T09:32:25.426Z,39.13
2023-03-14T09:34:52.160Z,38.47
2023-03-14T09:37:18.862Z,39.00
2023-03-14T09:39:45.447Z,38.69
2023-03-14T09:42:19.445Z,37.78
2023-03-14T09:44:56.836Z,37.95
2023-03-14T09:47:24.894Z,38.31
2023-03-14T09:49:51.560Z,39.30
2023-03-14T09:52:32.281Z,37.98
2023-03-14T09:55:04.590Z,38.53
2023-03-14T09:57:34.937Z,38.26
2023-03-14T10:00:22.765Z,38.42
2023-03-14T10:02:56.634Z,38.27
2023-03-14T10:05:26.707Z,36.66
2023-03-14T10:07:53.224Z,34.68
2023-03-14T10:10:24.119Z,36.03
2023-03-14T10:12:57.814Z,34.64
2023-03-14T10:15:35.497Z,33.24
2023-03-14T10:18:04.263Z,33.33
2023-03-14T10:20:46.470Z,32.57
2023-03-14T10:23:12.943Z,32.60
2023-03-14T10:25:46.175Z,32.66
2023-03-14T10:28:26.089Z,32.27
2023-03-14T10:30:52.744Z,32.31
2023-03-14T10:33:19.262Z,32.64
2023-03-14T10:35:47.826Z,32.54
2023-03-14T10:38:17.261Z,32.92
2023-03-14T10:40:54.058Z,32.54
2023-03-14T10:43:27.763Z,32.92
2023-03-14T10:45:59.925Z,33.04
2023-03-14T10:48:38.533Z,33.06
2023-03-14T10:51:31.333Z,32.96
2023-03-14T10:54:01.973Z,33.17
2023-03-14T10:56:35.388Z,32.10
2023-03-14T10:59:02.164Z,32.18
2023-03-14T11:01:47.221Z,32.01
2023-03-14T11:04:51.172Z,31.18
2023-03-14T11:07:39.668Z,31.31
2023-03-14T11:10:12.080Z,31.56
2023-03-14T11:13:03.342Z,30.84
2023-03-14T11:15:39.341Z,31.13
2023-03-14T11:18:36.854Z,30.88
2023-03-14T11:21:10.423Z,30.63
2023-03-14T11:23:55.490Z,29.82
2023-03-14T11:26:49.576Z,29.52
2023-03-14T11:29:54.640Z,30.44
2023-03-14T11:32:41.503Z,30.64
2023-03-14T11:35:32.604Z,30.60
2023-03-14T11:38:37.897Z,30.95
2023-03-14T11:41:05.479Z,31.22
2023-03-14T11:43:43.533Z,31.31
2023-03-14T11:46:13.068Z,31.21
2023-03-14T11:48:52.681Z,31.32
2023-03-14T11:51:26.812Z,30.69
2023-03-14T11:54:03.237Z,30.50
2023-03-14T11:56:38.752Z,29.65
2023-03-14T11:59:46.859Z,29.18
2023-03-14T12:02:13.429Z,28.40
2023-03-14T12:05:21.099Z,27.40
2023-03-14T12:08:20.575Z,27.97
2023-03-14T12:10:52.019Z,28.84
2023-03-14T12:13:19.618Z,27.14
2023-03-14T12:15:55.590Z,26.41
2023-03-14T12:18:31.757Z,26.81
2023-03-14T12:21:04.387Z,25.83
2023-03-14T12:23:54.873Z,25.31
2023-03-14T12:26:48.973Z,25.64
2023-03-14T12:29:19.095Z,25.87
2023-03-14T12:31:48.544Z,27.27
2023-03-14T12:34:15.062Z,28.70
2023-03-14T12:36:50.827Z,27.64
2023-03-14T12:39:44.987Z,27.49
2023-03-14T12:42:27.418Z,27.38
2023-03-14T12:45:16.428Z,27.91
2023-03-14T12:47:53.853Z,28.66
2023-03-14T12:50:26.337Z,29.12
2023-03-14T12:53:10.755Z,29.82
2023-03-14T12:55:46.517Z,30.29
2023-03-14T12:58:39.803Z,30.61
2023-03-14T13:01:15.783Z,30.75
2023-03-14T13:03:54.978Z,30.75
2023-03-14T13:06:55.135Z,30.82
2023-03-14T13:09:31.103Z,30.83
2023-03-14T13:12:03.313Z,31.19
2023-03-14T13:14:32.353Z,31.22
2023-03-14T13:17:19.272Z,31.82
2023-03-14T13:20:06.112Z,32.36
2023-03-14T13:22:38.026Z,32.32
2023-03-14T13:25:08.066Z,32.80
2023-03-14T13:27:36.286Z,32.98
2023-03-14T13:30:23.906Z,33.04
2023-03-14T13:32:52.838Z,33.34
2023-03-14T13:35:29.839Z,33.28
2023-03-14T13:38:10.695Z,33.25
2023-03-14T13:40:38.582Z,33.46
2023-03-14T13:43:36.889Z,33.63
2023-03-14T13:46:21.997Z,33.55
2023-03-14T13:48:55.854Z,33.56
2023-03-14T13:51:23.637Z,33.56
2023-03-14T13:53:53.183Z,33.75
2023-03-14T13:56:25.880Z,33.80
2023-03-14T13:58:52.801Z,33.55
2023-03-14T14:01:39.726Z,33.63
2023-03-14T14:04:15.958Z,33.56
2023-03-14T14:07:01.536Z,33.68
2023-03-14T14:09:31.672Z,33.53
2023-03-14T14:12:15.568Z,33.42
2023-03-14T14:14:49.375Z,33.46
2023-03-14T14:17:25.064Z,33.46
2023-03-14T14:19:53.537Z,33.76
2023-03-14T14:22:22.081Z,33.83
2023-03-14T14:24:48.984Z,33.57
2023-03-14T14:27:18.744Z,33.81
2023-03-14T14:30:06.882Z,33.74
2023-03-14T14:32:38.971Z,33.54
2023-03-14T14:35:08.574Z,33.96
2023-03-14T14:37:41.842Z,33.51
2023-03-14T14:40:29.051Z,33.46
2023-03-14T14:43:02.976Z,33.71
2023-03-14T14:45:29.863Z,33.23
2023-03-14T14:48:03.325Z,33.45
2023-03-14T14:50:32.410Z,32.86
2023-03-14T14:53:01.568Z,33.60
2023-03-14T14:55:40.324Z,33.25
2023-03-14T14:58:24.844Z,33.18
2023-03-14T15:00:54.274Z,33.36
2023-03-14T15:03:21.134Z,33.89
2023-03-14T15:05:47.814Z,33.72
2023-03-14T15:08:14.669Z,33.97
2023-03-14T15:10:41.765Z,34.29
2023-03-14T15:13:08.514Z,34.06
2023-03-14T15:15:35.947Z,34.37
2023-03-14T15:18:02.672Z,34.29
2023-03-14T15:20:29.304Z,34.37
2023-03-14T15:22:55.913Z,34.67
2023-03-14T15:25:47.277Z,34.88
2023-03-14T15:28:21.335Z,34.92
2023-03-14T15:30:56.153Z,34.75
2023-03-14T15:33:23.254Z,34.88
2023-03-14T15:35:50.324Z,34.93
2023-03-14T15:38:24.029Z,34.88
2023-03-14T15:40:51.780Z,34.86
2023-03-14T15:43:19.397Z,35.14
2023-03-14T15:45:46.481Z,35.12
2023-03-14T15:48:18.746Z,35.08
2023-03-14T15:50:45.713Z,37.40
2023-03-14T15:53:12.922Z,40.66
2023-03-14T15:55:39.520Z,41.61
2023-03-14T15:58:06.262Z,42.62
2023-03-14T16:00:33.282Z,44.06
2023-03-14T16:02:59.907Z,45.61
2023-03-14T16:05:26.624Z,47.81
2023-03-14T16:07:53.212Z,48.94
2023-03-14T16:10:19.898Z,49.98
2023-03-14T16:12:46.719Z,50.48
2023-03-14T16:15:13.305Z,52.39
2023-03-14T16:17:41.146Z,53.55
2023-03-14T16:20:08.798Z,54.21
2023-03-14T16:22:35.901Z,54.83
2023-03-14T16:25:08.136Z,55.89
2023-03-14T16:27:34.770Z,55.91
2023-03-14T16:30:01.378Z,56.87
2023-03-14T16:32:28.707Z,57.62
2023-03-14T16:34:55.356Z,58.31
2023-03-14T16:37:26.536Z,58.60
2023-03-14T16:40:11.663Z,59.18
2023-03-14T16:42:54.905Z,59.36
2023-03-14T16:45:26.137Z,59.77
2023-03-14T16:47:52.777Z,60.45
2023-03-14T16:50:19.329Z,61.36
2023-03-14T16:52:47.992Z,61.62
2023-03-14T16:55:14.613Z,62.62
2023-03-14T16:57:41.207Z,63.20
2023-03-14T17:00:11.409Z,63.96
2023-03-14T17:02:38.799Z,64.78
2023-03-14T17:05:05.744Z,65.43
2023-03-14T17:07:32.384Z,65.80
2023-03-14T17:09:58.973Z,66.16
2023-03-14T17:12:25.557Z,67.29
2023-03-14T17:14:52.103Z,67.46
2023-03-14T17:17:18.639Z,68.92
2023-03-14T17:19:45.272Z,69.55
2023-03-14T17:22:23.986Z,70.41
2023-03-14T17:24:52.126Z,70.89
2023-03-14T17:27:20.628Z,71.67
2023-03-14T17:29:48.307Z,72.38
2023-03-14T17:32:16.798Z,72.88
2023-03-14T17:34:43.464Z,74.21
2023-03-14T17:37:10.040Z,73.89
2023-03-14T17:39:38.194Z,73.96
2023-03-14T17:42:05.591Z,74.32
2023-03-14T17:44:32.963Z,74.57
2023-03-14T17:47:00.394Z,75.27
2023-03-14T17:49:28.208Z,75.30
2023-03-14T17:51:54.811Z,75.00
2023-03-14T17:54:21.472Z,74.97
2023-03-14T17:56:48.976Z,75.17
2023-03-14T17:59:16.111Z,75.04
2023-03-14T18:01:42.953Z,75.54
2023-03-14T18:04:09.793Z,75.71
2023-03-14T18:06:36.532Z,76.58
2023-03-14T18:09:05.134Z,76.40
2023-03-14T18:11:32.305Z,76.33
2023-03-14T18:14:01.633Z,76.19
2023-03-14T18:16:28.754Z,75.97
2023-03-14T18:18:57.543Z,76.37
2023-03-14T18:21:24.187Z,76.56
2023-03-14T18:23:51.047Z,76.29
2023-03-14T18:26:18.316Z,76.40
2023-03-14T18:28:45.967Z,76.73
2023-03-14T18:31:17.681Z,76.94
2023-03-14T18:33:47.898Z,77.44
2023-03-14T18:36:15.342Z,77.54
2023-03-14T18:38:48.433Z,77.06
2023-03-14T18:41:18.931Z,77.18
2023-03-14T18:43:46.194Z,76.82
2023-03-14T18:46:13.585Z,76.49
2023-03-14T18:48:43.518Z,76.87
2023-03-14T18:51:18.215Z,76.87
2023-03-14T18:53:46.416Z,77.13
2023-03-14T18:56:14.101Z,76.97
2023-03-14T18:58:41.135Z,77.29
2023-03-14T19:01:08.031Z,77.06
2023-03-14T19:03:37.723Z,77.20
2023-03-14T19:06:08.836Z,77.44
2023-03-14T19:08:37.310Z,77.58
2023-03-14T19:11:06.709Z,77.75
2023-03-14T19:13:34.855Z,77.70
2023-03-14T19:16:02.561Z,77.92
2023-03-14T19:18:29.288Z,78.09
2023-03-14T19:21:04.693Z,78.46
2023-03-14T19:23:33.345Z,78.72
2023-03-14T19:26:00.254Z,78.93
2023-03-14T19:28:26.831Z,78.84
2023-03-14T19:30:53.421Z,79.61
2023-03-14T19:33:20.380Z,79.57
2023-03-14T19:35:47.831Z,79.79
2023-03-14T19:38:15.378Z,80.13
2023-03-14T19:40:44.861Z,79.92
2023-03-14T19:43:12.258Z,80.07
2023-03-14T19:45:39.294Z,81.24
2023-03-14T19:48:07.164Z,81.36
2023-03-14T19:50:35.057Z,81.62
2023-03-14T19:53:03.599Z,82.51
2023-03-14T19:55:34.696Z,83.07
2023-03-14T19:58:01.540Z,83.44
2023-03-14T20:00:28.491Z,83.10
2023-03-14T20:02:55.587Z,83.36
2023-03-14T20:05:23.757Z,83.65
2023-03-14T20:07:50.936Z,83.60
2023-03-14T20:10:22.763Z,84.40
2023-03-14T20:12:50.881Z,84.65
2023-03-14T20:15:19.568Z,85.27
2023-03-14T20:17:47.797Z,85.82
2023-03-14T20:20:15.170Z,87.05
2023-03-14T20:22:41.758Z,87.50
2023-03-14T20:25:11.724Z,88.21
2023-03-14T20:27:39.138Z,88.67
2023-03-14T20:30:13.069Z,88.76
2023-03-14T20:32:40.752Z,88.54
2023-03-14T20:35:09.496Z,88.79
2023-03-14T20:37:36.081Z,89.20
2023-03-14T20:40:07.142Z,89.02
2023-03-14T20:42:34.575Z,89.09
2023-03-14T20:45:01.251Z,89.69
2023-03-14T20:47:28.097Z,89.60
2023-03-14T20:49:54.699Z,90.12
2023-03-14T20:52:22.404Z,90.33
2023-03-14T20:54:49.015Z,90.64
2023-03-14T20:57:16.694Z,90.83
2023-03-14T20:59:43.267Z,91.57
2023-03-14T21:02:10.715Z,91.36
2023-03-14T21:04:37.847Z,91.54
2023-03-14T21:07:04.721Z,92.48
2023-03-14T21:09:31.304Z,92.28
2023-03-14T21:11:57.880Z,92.47
2023-03-14T21:14:24.990Z,92.74
2023-03-14T21:16:57.096Z,92.36
2023-03-14T21:19:30.310Z,92.15
2023-03-14T21:21:58.562Z,92.67
2023-03-14T21:24:25.691Z,92.50
2023-03-14T21:26:53.726Z,92.13
2023-03-14T21:29:22.993Z,92.08
2023-03-14T21:31:50.300Z,91.91
2023-03-14T21:34:17.832Z,91.79
2023-03-14T21:36:44.380Z,91.88
2023-03-14T21:39:10.949Z,92.08
2023-03-14T21:41:37.585Z,92.02
2023-03-14T21:44:04.172Z,92.21
2023-03-14T21:46:30.911Z,91.85
2023-03-14T21:48:57.557Z,91.44
2023-03-14T21:51:30.025Z,91.63
2023-03-14T21:53:57.420Z,91.56
2023-03-14T21:56:27.030Z,91.47
2023-03-14T21:58:59.174Z,91.50
2023-03-14T22:01:25.761Z,91.51
2023-03-14T22:03:53.636Z,91.44
2023-03-14T22:06:21.063Z,91.32
2023-03-14T22:08:47.630Z,90.98
2023-03-14T22:11:14.491Z,90.49
2023-03-14T22:13:41.082Z,90.69
2023-03-14T22:16:08.482Z,90.54
2023-03-14T22:18:35.116Z,90.54
2023-03-14T22:21:01.928Z,91.00
2023-03-14T22:23:28.496Z,90.70
2023-03-14T22:25:55.147Z,90.07
2023-03-14T22:28:21.718Z,90.13
2023-03-14T22:30:49.550Z,90.43
2023-03-14T22:33:17.120Z,90.16
2023-03-14T22:35:48.460Z,89.92
2023-03-14T22:38:15.299Z,89.96
2023-03-14T22:40:41.922Z,89.57
2023-03-14T22:43:08.555Z,89.22
2023-03-14T22:45:35.200Z,88.98
2023-03-14T22:48:02.009Z,88.47
2023-03-14T22:50:28.589Z,88.14
2023-03-14T22:52:55.126Z,87.14
2023-03-14T22:55:21.709Z,86.80
2023-03-14T22:57:52.564Z,84.75
2023-03-14T23:00:19.836Z,84.53
2023-03-14T23:02:46.429Z,83.35
2023-03-14T23:05:12.984Z,82.71
2023-03-14T23:07:39.536Z,82.18
2023-03-14T23:10:06.801Z,81.76
2023-03-14T23:12:33.943Z,80.98
2023-03-14T23:15:00.513Z,79.60
2023-03-14T23:17:27.114Z,78.84
2023-03-14T23:19:54.180Z,78.06
2023-03-14T23:22:21.072Z,78.33
2023-03-14T23:24:48.727Z,76.93
2023-03-14T23:27:16.731Z,76.91
2023-03-14T23:29:46.547Z,76.41
2023-03-14T23:32:15.541Z,75.40
2023-03-14T23:34:43.372Z,75.16
2023-03-14T23:37:13.938Z,75.61
2023-03-14T23:39:44.007Z,75.24
2023-03-14T23:42:10.781Z,74.23
2023-03-14T23:44:37.915Z,74.30
2023-03-14T23:47:04.740Z,73.47
2023-03-14T23:49:31.267Z,73.32
2023-03-14T23:51:57.904Z,72.54
2023-03-14T23:54:24.444Z,72.38
2023-03-14T23:56:51.802Z,73.57
2023-03-14T23:59:18.659Z,72.64
